Rejestracja

Wszystkie dane podawane są w czasie UTC za wyjątkiem miejsc gdzie jest jednoznacznie podane, że jest inaczej. Dane podawane w serwisie mają charakter informacyjny!!!
Informacje w sprawie dostępu do serwisu pod numerem tel. +48 261-828-138
Informacja dla żołnierzy i pracowników wojska: Prosimy o niezwłoczną zmianę adresu e-mail w profilu użytkownika na pocztę w domenie @ron.mil.pl

Aktualna Pogoda
 
Pogoda w Polsce
5°C Szczecin -4°C Suwałki -0°C Warszawa 7°C Poznan
7°C Opole 3°C Kraków -2°C Rzeszów
Więcej miast w Polsce

Pogoda w Europie
5°C Berlin 6°C Paryz 8°C Bruksela 5°C Oslo
4°C Praga 3°C Zagrzeb
Więcej miast w Europie

Metary wojskowe test
METAR EPCE 230400Z 20008KT 170V230 7000 OVC007 07/05 Q1026 RMK 065 091 8/8=
METAR EPDA 230400Z 21006KT 150V230 9000 OVC009 08/06 Q1026 RMK 077 092 8/8=
METAR EPDE 230400Z VRB02KT 7000 NSC M04/M05 Q1030 RMK M045 096 0/0=
METAR EPKS 230400Z 12005KT 0800 R29/0375D FG NSC 04/04 Q1028 RMK 036 100 0/0=
METAR EPLK 230400Z AUTO 14003KT 110V170 0350 R28/0650N FG VV001 02/02 Q1029 RMK 019 100 ///=
METAR EPLY 230400Z VRB02KT 0200 FG NSC 02/01 Q1030 RMK 018 097 0/0=
METAR EPMB 230400Z 18008KT CAVOK 01/M02 Q1027 RMK 009 079 0/0=
METAR EPMI 230400Z 18005KT 150V220 6000 OVC006 07/06 Q1027 RMK 072 094 8/8=
METAR EPMM 230400Z 20003KT CAVOK M03/M05 Q1030 RMK M031 089 0/0=
METAR EPOK 230400Z 16003KT 9999 BKN015 05/03 Q1026 RMK 050 086 5/5=
METAR EPPR 230400Z 16004KT CAVOK 03/01 Q1027 RMK 031 084 0/0=
METAR EPPW 230400Z 11004KT 0300 FG SCT018 03/03 Q1028 RMK 026 100 3/3=
METAR EPSN 230400Z 19008KT 5000 BR OVC007 07/07 Q1026 RMK 074 100 8/8=
METAR EPTM 230400Z VRB02KT 0100 FG VV001 M01/M01 Q1029 RMK M007 099 ///=


 

Prawa autorskie©2007 SSH SZ RP. Wszelkie prawa zastrzeżone.